< < Back
Terminal Aerodrome Forecast


Current Version              Previous Versions:   1  2  3  4  5  6  7  8  9  

Terminal Aerodrome Forecast

867
FTUS42 KILM 211700
TAFFLO
TAF
KFLO 211720Z 2118/2218 03007KT P6SM SCT035 BKN060 OVC100
     FM212300 05007KT P6SM VCSH SCT020 BKN035 OVC050
     FM220400 03008KT 6SM -RA BR SCT006 OVC018
     FM220600 03008KT 4SM -RA BR BKN006 OVC015=



Latest METAR

016
SAUS70 KWBC 212100 RRB
MTRFLO
METAR KFLO 212053Z 07006KT 10SM OVC065 12/04 A3018 RMK AO2 SLP220
T01170039 55010


USA.gov is the U.S. government's official web portal to all federal, state and local government web resources and services.